createdAt,value
2023-05-02T00:03:30.786Z,11.5
2023-05-02T00:18:51.000Z,11.4
2023-05-02T00:34:12.746Z,11
2023-05-02T00:49:33.000Z,10.2
2023-05-02T01:04:53.690Z,9.2
2023-05-02T01:20:14.644Z,9
2023-05-02T01:35:35.000Z,9.2
2023-05-02T01:50:56.593Z,9.3
2023-05-02T02:06:17.550Z,8.8
2023-05-02T02:21:38.000Z,8.7
2023-05-02T02:36:59.481Z,9.1
2023-05-02T02:52:20.420Z,9.3
2023-05-02T03:07:41.383Z,9.6
2023-05-02T03:23:02.339Z,9.8
2023-05-02T03:38:23.261Z,9.6
2023-05-02T03:53:44.155Z,9.5
2023-05-02T04:09:05.115Z,9.6
2023-05-02T04:24:25.012Z,9.6
2023-05-02T04:39:45.970Z,10.1
2023-05-02T04:55:06.909Z,10.5
2023-05-02T05:10:27.789Z,10.8
2023-05-02T05:25:48.714Z,11
2023-05-02T05:41:09.662Z,11.7
2023-05-02T05:56:30.584Z,12.5
2023-05-02T06:11:51.472Z,12.7
2023-05-02T06:27:12.435Z,12.5
2023-05-02T06:42:33.345Z,12
2023-05-02T06:57:54.272Z,12.6
2023-05-02T07:13:15.194Z,13.3
2023-05-02T07:28:36.093Z,13.3
2023-05-02T07:43:57.166Z,13.7
2023-05-02T07:59:18.096Z,13.1
2023-05-02T08:14:38.984Z,13.7
2023-05-02T08:29:59.921Z,14.6
2023-05-02T08:45:20.848Z,13.3
2023-05-02T08:46:41.871Z,13
2023-05-02T08:48:02.949Z,12.8
2023-05-02T08:49:24.050Z,12.7
2023-05-02T08:50:45.110Z,12.5
2023-05-02T08:52:06.191Z,12.4
2023-05-02T08:53:27.216Z,12.3
2023-05-02T08:54:48.316Z,12.4
2023-05-02T08:56:09.389Z,12.2
2023-05-02T08:57:29.461Z,12.1
2023-05-02T08:58:50.536Z,12.1
2023-05-02T09:00:11.560Z,12
2023-05-02T09:01:32.665Z,12
2023-05-02T09:02:53.728Z,12
2023-05-02T09:04:14.809Z,12
2023-05-02T09:05:35.867Z,12
2023-05-02T09:06:56.901Z,12.1
2023-05-02T09:08:18.000Z,12.1
2023-05-02T09:09:39.068Z,12.1
2023-05-02T09:11:00.099Z,12.2
2023-05-02T09:12:21.208Z,12.3
2023-05-02T09:13:42.228Z,12.3
2023-05-02T09:15:02.312Z,12.4
2023-05-02T09:16:23.393Z,12.5
2023-05-02T09:17:44.491Z,12.5
2023-05-02T09:19:05.555Z,12.6
2023-05-02T09:20:26.578Z,12.7
2023-05-02T09:21:47.685Z,12.8
2023-05-02T09:23:08.764Z,12.9
2023-05-02T09:24:29.796Z,13
2023-05-02T09:25:50.893Z,13.1
2023-05-02T09:27:11.952Z,13.3
2023-05-02T09:28:32.983Z,13.5
2023-05-02T09:29:54.047Z,13.5
2023-05-02T09:31:15.152Z,13.5
2023-05-02T09:32:36.351Z,13.6
2023-05-02T09:33:57.425Z,13.7
2023-05-02T09:35:18.481Z,14.1
2023-05-02T09:36:39.551Z,14.4
2023-05-02T09:38:00.629Z,14.5
2023-05-02T09:39:21.690Z,14.6
2023-05-02T09:40:42.746Z,14.5
2023-05-02T09:42:03.851Z,14.5
2023-05-02T09:43:24.922Z,14.6
2023-05-02T09:44:45.931Z,14.6
2023-05-02T09:46:06.997Z,14.7
2023-05-02T09:47:28.116Z,14.9
2023-05-02T09:48:49.198Z,15
2023-05-02T09:50:09.248Z,15.2
2023-05-02T09:51:30.312Z,15.3
2023-05-02T09:52:51.422Z,15.2
2023-05-02T09:54:12.467Z,15.3
2023-05-02T09:55:33.581Z,15.1
2023-05-02T09:56:54.663Z,15.1
2023-05-02T09:58:14.763Z,15.1
2023-05-02T09:59:35.813Z,15.3
2023-05-02T10:00:56.902Z,15.4
2023-05-02T10:02:17.000Z,15.4
2023-05-02T10:03:39.045Z,15.7
2023-05-02T10:05:00.115Z,15.5
2023-05-02T10:06:21.155Z,15.4
2023-05-02T10:07:42.260Z,15.4
2023-05-02T10:09:03.332Z,15.2
2023-05-02T10:10:24.391Z,15.2
2023-05-02T10:11:45.462Z,15
2023-05-02T10:13:06.542Z,15
2023-05-02T10:14:27.588Z,14.9
2023-05-02T10:15:47.667Z,14.8
2023-05-02T10:17:08.749Z,14.7
2023-05-02T10:18:29.805Z,14.7
2023-05-02T10:19:50.828Z,14.6
2023-05-02T10:21:11.941Z,14.4
2023-05-02T10:22:33.000Z,14.4
2023-05-02T10:23:54.082Z,14.4
2023-05-02T10:25:15.136Z,14.5
2023-05-02T10:26:36.199Z,14.5
2023-05-02T10:27:57.274Z,14.5
2023-05-02T10:29:18.353Z,14.7
2023-05-02T10:30:39.409Z,14.9
2023-05-02T10:32:00.454Z,14.9
2023-05-02T10:33:20.571Z,15
2023-05-02T10:34:41.605Z,15
2023-05-02T10:36:02.675Z,15
2023-05-02T10:37:23.738Z,15.1
2023-05-02T10:38:44.858Z,15.2
2023-05-02T10:40:05.936Z,15.4
2023-05-02T10:41:27.006Z,15.7
2023-05-02T10:42:48.078Z,16
2023-05-02T10:44:09.158Z,16.3
2023-05-02T10:45:30.219Z,16.8
2023-05-02T10:46:51.287Z,17.1
2023-05-02T10:48:12.375Z,17.5
2023-05-02T10:49:33.442Z,18
2023-05-02T10:50:53.499Z,18.4
2023-05-02T10:52:14.624Z,18.5
2023-05-02T10:53:35.691Z,18.4
2023-05-02T10:54:56.780Z,18.1
2023-05-02T10:56:17.854Z,17.8
2023-05-02T10:57:38.916Z,17.6
2023-05-02T10:58:59.997Z,17.4
2023-05-02T11:00:21.068Z,17.2
2023-05-02T11:01:42.101Z,16.8
2023-05-02T11:03:03.000Z,16.4
2023-05-02T11:04:24.272Z,16
2023-05-02T11:05:45.299Z,15.8
2023-05-02T11:07:06.403Z,15.6
2023-05-02T11:08:26.489Z,15.4
2023-05-02T11:09:47.575Z,15.4
2023-05-02T11:11:08.641Z,15.3
2023-05-02T11:12:29.698Z,15.3
2023-05-02T11:13:50.735Z,15.2
2023-05-02T11:15:11.836Z,15.3
2023-05-02T11:16:32.860Z,15.5
2023-05-02T11:17:53.916Z,15.7
2023-05-02T11:19:15.036Z,15.9
2023-05-02T11:20:36.095Z,16
2023-05-02T11:21:57.145Z,16.3
2023-05-02T11:23:18.256Z,16.3
2023-05-02T11:26:00.377Z,16.8
2023-05-02T11:27:20.490Z,17
2023-05-02T11:28:41.534Z,17.4
2023-05-02T11:30:02.630Z,17.5
2023-05-02T11:31:23.696Z,18.1
2023-05-02T11:32:44.820Z,18.1
2023-05-02T11:34:05.892Z,18
2023-05-02T11:35:26.933Z,17.9
2023-05-02T11:36:48.031Z,17.5
2023-05-02T11:38:09.074Z,17.3
2023-05-02T11:39:30.175Z,17.1
2023-05-02T11:40:51.249Z,16.8
2023-05-02T11:42:12.284Z,16.9
2023-05-02T11:43:33.379Z,16.8
2023-05-02T11:44:53.422Z,16.8
2023-05-02T11:46:14.549Z,16.7
2023-05-02T11:47:35.619Z,16.6
2023-05-02T11:48:56.646Z,16.3
2023-05-02T11:50:17.765Z,15.9
2023-05-02T11:51:38.835Z,15.7
2023-05-02T11:52:59.887Z,15.5
2023-05-02T11:54:20.965Z,15.3
2023-05-02T11:55:41.984Z,15.2
2023-05-02T11:57:03.088Z,15.2
2023-05-02T11:58:24.156Z,15.1
2023-05-02T11:59:45.225Z,14.8
2023-05-02T12:01:06.250Z,14.6
2023-05-02T12:02:26.347Z,14.3
2023-05-02T12:03:47.403Z,14
2023-05-02T12:05:08.503Z,13.8
2023-05-02T12:06:29.532Z,13.6
2023-05-02T12:07:50.638Z,13.4
2023-05-02T12:09:11.667Z,13.2
2023-05-02T12:10:32.766Z,13.2
2023-05-02T12:11:53.836Z,13.1
2023-05-02T12:13:14.899Z,13.2
2023-05-02T12:14:35.974Z,13.3
2023-05-02T12:15:57.032Z,13.2
2023-05-02T12:17:18.096Z,13
2023-05-02T12:18:39.170Z,12.9
2023-05-02T12:19:59.208Z,12.8
2023-05-02T12:21:20.306Z,12.9
2023-05-02T12:22:41.342Z,13.1
2023-05-02T12:24:02.443Z,13.3
2023-05-02T12:25:23.525Z,14.1
2023-05-02T12:26:44.592Z,14.9
2023-05-02T12:28:05.624Z,15.4
2023-05-02T12:29:26.743Z,15.7
2023-05-02T12:30:47.776Z,15.6
2023-05-02T12:32:08.848Z,15.1
2023-05-02T12:33:29.965Z,14.9
2023-05-02T12:34:51.015Z,14.5
2023-05-02T12:36:12.096Z,14.4
2023-05-02T12:37:32.173Z,14.1
2023-05-02T12:38:53.230Z,13.9
2023-05-02T12:40:14.274Z,13.8
2023-05-02T12:41:35.333Z,13.7
2023-05-02T12:42:56.456Z,13.7
2023-05-02T12:44:17.505Z,13.6
2023-05-02T12:45:38.579Z,13.5
2023-05-02T12:46:59.600Z,13.4
2023-05-02T12:48:20.704Z,13.4
2023-05-02T12:49:41.737Z,13.4
2023-05-02T12:51:02.849Z,13.4
2023-05-02T12:52:23.866Z,13.5
2023-05-02T12:53:44.974Z,13.3
2023-05-02T12:55:05.063Z,13.2
2023-05-02T12:56:26.081Z,13.3
2023-05-02T12:57:47.185Z,13.4
2023-05-02T12:59:08.207Z,13.5
2023-05-02T13:00:29.318Z,13.9
2023-05-02T13:01:50.393Z,14.1
2023-05-02T13:03:11.409Z,14.5
2023-05-02T13:04:32.482Z,14.9
2023-05-02T13:05:53.560Z,15
2023-05-02T13:07:14.654Z,14.9
2023-05-02T13:08:35.678Z,14.7
2023-05-02T13:09:56.749Z,14.6
2023-05-02T13:11:17.859Z,14.8
2023-05-02T13:12:37.949Z,14.6
2023-05-02T13:13:58.964Z,14.4
2023-05-02T13:15:20.075Z,14.2
2023-05-02T13:16:41.114Z,14.2
2023-05-02T13:18:02.166Z,14.1
2023-05-02T13:19:23.292Z,14
2023-05-02T13:20:44.305Z,13.9
2023-05-02T13:22:05.372Z,14
2023-05-02T13:23:26.472Z,13.8
2023-05-02T13:24:47.540Z,13.8
2023-05-02T13:26:08.602Z,13.8
2023-05-02T13:27:29.681Z,13.8
2023-05-02T13:28:50.750Z,13.8
2023-05-02T13:30:10.786Z,13.9
2023-05-02T13:31:31.857Z,14
2023-05-02T13:32:52.951Z,14
2023-05-02T13:34:14.031Z,14.1
2023-05-02T13:35:35.102Z,14.1
2023-05-02T13:36:56.112Z,14.3
2023-05-02T13:38:17.223Z,14.1
2023-05-02T13:40:59.312Z,14
2023-05-02T13:42:20.411Z,14.1
2023-05-02T13:43:41.481Z,14.2
2023-05-02T13:45:02.558Z,14.2
2023-05-02T13:46:23.000Z,14.3
2023-05-02T13:47:44.812Z,14.7
2023-05-02T13:50:26.968Z,16.1
2023-05-02T13:51:48.029Z,16.2
2023-05-02T13:53:09.099Z,16
2023-05-02T13:54:30.170Z,15.8
2023-05-02T13:55:51.230Z,15.8
2023-05-02T13:57:12.263Z,15.6
2023-05-02T13:58:33.376Z,15.4
2023-05-02T13:59:54.439Z,14.8
2023-05-02T14:01:15.475Z,14.6
2023-05-02T14:02:36.522Z,14.3
2023-05-02T14:03:57.635Z,13.9
2023-05-02T14:05:17.728Z,13.8
2023-05-02T14:06:38.778Z,13.6
2023-05-02T14:07:59.855Z,13.5
2023-05-02T14:09:20.926Z,13.5
2023-05-02T14:10:41.941Z,13.4
2023-05-02T14:12:03.062Z,13.3
2023-05-02T14:13:24.097Z,13.3
2023-05-02T14:14:45.146Z,13.2
2023-05-02T14:16:06.253Z,13
2023-05-02T14:17:27.316Z,13.1
2023-05-02T14:18:48.401Z,13
2023-05-02T14:20:09.458Z,13
2023-05-02T14:21:30.472Z,12.9
2023-05-02T14:22:50.608Z,12.8
2023-05-02T14:24:11.667Z,12.7
2023-05-02T14:25:32.702Z,12.7
2023-05-02T14:26:53.764Z,12.7
2023-05-02T14:28:14.888Z,12.7
2023-05-02T14:29:34.925Z,12.7
2023-05-02T14:30:56.028Z,12.6
2023-05-02T14:32:17.059Z,12.6
2023-05-02T14:33:38.177Z,12.6
2023-05-02T14:34:59.190Z,12.6
2023-05-02T14:36:20.307Z,12.6
2023-05-02T14:37:41.330Z,12.6
2023-05-02T14:39:02.429Z,12.6
2023-05-02T14:40:23.452Z,12.6
2023-05-02T14:41:44.526Z,12.4
2023-05-02T14:43:05.633Z,12.4
2023-05-02T14:44:26.712Z,12.4
2023-05-02T14:45:47.772Z,12.4
2023-05-02T14:47:07.860Z,12.3
2023-05-02T14:48:28.873Z,12.4
2023-05-02T14:49:49.929Z,12.3
2023-05-02T14:51:11.005Z,12.4
2023-05-02T14:52:32.109Z,12.4
2023-05-02T14:53:53.183Z,12.4
2023-05-02T14:55:14.250Z,12.5
2023-05-02T14:56:35.268Z,12.5
2023-05-02T14:57:56.382Z,12.5
2023-05-02T14:59:17.461Z,12.5
2023-05-02T15:00:38.508Z,12.4
2023-05-02T15:01:59.534Z,12.4
2023-05-02T15:03:20.661Z,12.5
2023-05-02T15:04:40.684Z,12.5
2023-05-02T15:06:01.792Z,12.5
2023-05-02T15:07:22.819Z,12.5
2023-05-02T15:08:43.930Z,12.6
2023-05-02T15:10:04.964Z,12.7
2023-05-02T15:11:26.064Z,12.6
2023-05-02T15:12:47.120Z,12.6
2023-05-02T15:14:08.146Z,12.7
2023-05-02T15:15:29.213Z,12.6
2023-05-02T15:16:50.328Z,12.7
2023-05-02T15:18:11.342Z,12.8
2023-05-02T15:19:32.475Z,12.8
2023-05-02T15:20:53.534Z,13
2023-05-02T15:22:13.569Z,13.1
2023-05-02T15:23:34.632Z,13.1
2023-05-02T15:24:55.697Z,13.2
2023-05-02T15:26:16.761Z,13.2
2023-05-02T15:27:37.881Z,13.2
2023-05-02T15:28:58.949Z,13.3
2023-05-02T15:30:20.024Z,13.2
2023-05-02T15:31:41.046Z,13.4
2023-05-02T15:33:02.162Z,13.4
2023-05-02T15:34:23.180Z,13.4
2023-05-02T15:37:05.318Z,13.2
2023-05-02T15:38:26.373Z,13.2
2023-05-02T15:39:46.509Z,13.2
2023-05-02T15:41:07.526Z,13.1
2023-05-02T15:42:28.594Z,13.2
2023-05-02T15:43:49.656Z,13.2
2023-05-02T15:45:10.770Z,13
2023-05-02T15:46:31.803Z,13.1
2023-05-02T15:47:52.862Z,13.2
2023-05-02T15:49:13.982Z,13.2
2023-05-02T15:50:34.998Z,13
2023-05-02T15:51:56.122Z,13
2023-05-02T15:53:17.169Z,13
2023-05-02T15:54:38.191Z,12.9
2023-05-02T15:55:59.306Z,13
2023-05-02T15:57:19.331Z,12.9
2023-05-02T15:58:40.401Z,12.9
2023-05-02T16:00:01.463Z,13
2023-05-02T16:01:22.538Z,13
2023-05-02T16:02:43.662Z,13
2023-05-02T16:04:04.712Z,13
2023-05-02T16:05:25.740Z,13
2023-05-02T16:06:46.858Z,12.9
2023-05-02T16:08:07.916Z,12.9
2023-05-02T16:09:28.978Z,12.9
2023-05-02T16:10:50.051Z,12.8
2023-05-02T16:12:11.114Z,12.9
2023-05-02T16:13:32.130Z,12.8
2023-05-02T16:14:53.253Z,12.8
2023-05-02T16:16:14.262Z,12.6
2023-05-02T16:17:35.394Z,12.6
2023-05-02T16:18:55.477Z,12.7
2023-05-02T16:20:16.544Z,12.7
2023-05-02T16:21:37.598Z,12.8
2023-05-02T16:22:58.668Z,12.7
2023-05-02T16:24:19.739Z,12.9
2023-05-02T16:25:40.750Z,13
2023-05-02T16:27:01.863Z,12.9
2023-05-02T16:28:22.940Z,12.9
2023-05-02T16:29:43.959Z,12.7
2023-05-02T16:31:05.084Z,12.6
2023-05-02T16:32:26.135Z,12.5
2023-05-02T16:33:47.217Z,12.6
2023-05-02T16:35:08.221Z,12.7
2023-05-02T16:36:28.350Z,12.7
2023-05-02T16:37:49.416Z,12.8
2023-05-02T16:39:10.484Z,12.7
2023-05-02T16:40:31.559Z,12.6
2023-05-02T16:41:52.574Z,12.7
2023-05-02T16:43:13.688Z,12.6
2023-05-02T16:44:34.702Z,12.6
2023-05-02T16:45:55.829Z,12.5
2023-05-02T16:47:16.896Z,12.5
2023-05-02T16:48:37.953Z,12.5
2023-05-02T16:49:59.023Z,12.3
2023-05-02T16:51:20.035Z,12.3
2023-05-02T16:52:41.104Z,12.2
2023-05-02T16:54:01.184Z,12.1
2023-05-02T16:55:22.249Z,12.2
2023-05-02T16:56:43.368Z,12.1
2023-05-02T16:58:04.446Z,12.2
2023-05-02T16:59:25.451Z,12.1
2023-05-02T17:00:46.568Z,12.2
2023-05-02T17:02:07.632Z,12.1
2023-05-02T17:03:28.659Z,12.2
2023-05-02T17:04:49.775Z,12.1
2023-05-02T17:06:10.790Z,12
2023-05-02T17:07:31.855Z,12
2023-05-02T17:08:52.985Z,11.9
2023-05-02T17:10:14.051Z,11.8
2023-05-02T17:11:34.145Z,11.7
2023-05-02T17:12:55.197Z,11.7
2023-05-02T17:14:16.260Z,11.6
2023-05-02T17:15:37.331Z,11.6
2023-05-02T17:16:58.412Z,11.5
2023-05-02T17:18:19.468Z,11.5
2023-05-02T17:19:40.528Z,11.4
2023-05-02T17:21:01.558Z,11.4
2023-05-02T17:22:22.612Z,11.3
2023-05-02T17:23:43.726Z,11.3
2023-05-02T17:25:04.805Z,11.3
2023-05-02T17:26:25.876Z,11.3
2023-05-02T17:27:46.929Z,11.3
2023-05-02T17:29:06.967Z,11.2
2023-05-02T17:30:28.033Z,11.2
2023-05-02T17:31:49.153Z,11.2
2023-05-02T17:33:10.232Z,11.1
2023-05-02T17:34:31.278Z,11.1
2023-05-02T17:35:52.301Z,11.1
2023-05-02T17:37:13.367Z,11
2023-05-02T17:38:34.488Z,11.1
2023-05-02T17:39:55.568Z,11
2023-05-02T17:41:16.639Z,11.1
2023-05-02T17:42:37.645Z,11
2023-05-02T17:43:58.726Z,10.9
2023-05-02T17:45:19.828Z,11
2023-05-02T17:46:39.852Z,11
2023-05-02T17:48:00.975Z,10.9
2023-05-02T17:49:21.988Z,10.8
2023-05-02T17:50:43.102Z,10.9
2023-05-02T17:52:04.168Z,10.8
2023-05-02T17:53:25.183Z,10.8
2023-05-02T17:54:46.314Z,10.9
2023-05-02T17:56:07.374Z,10.9
2023-05-02T17:57:28.437Z,10.9
2023-05-02T17:58:49.505Z,10.8
2023-05-02T18:00:10.524Z,10.8
2023-05-02T18:01:31.598Z,10.8
2023-05-02T18:02:52.656Z,10.8
2023-05-02T18:04:12.799Z,10.8
2023-05-02T18:05:33.878Z,10.8
2023-05-02T18:06:54.880Z,10.8
2023-05-02T18:08:16.007Z,10.8
2023-05-02T18:10:58.080Z,10.7
2023-05-02T18:12:19.158Z,10.8
2023-05-02T18:13:40.270Z,10.7
2023-05-02T18:15:01.291Z,10.8
2023-05-02T18:16:22.359Z,10.8
2023-05-02T18:17:43.429Z,10.6
2023-05-02T18:19:04.538Z,10.7
2023-05-02T18:20:25.608Z,10.6
2023-05-02T18:21:45.689Z,10.6
2023-05-02T18:23:06.760Z,10.6
2023-05-02T18:24:27.767Z,10.6
2023-05-02T18:25:48.885Z,10.6
2023-05-02T18:27:09.961Z,10.6
2023-05-02T18:28:30.967Z,10.6
2023-05-02T18:29:52.089Z,10.5
2023-05-02T18:31:13.158Z,10.7
2023-05-02T18:32:34.174Z,10.6
2023-05-02T18:33:55.237Z,10.6
2023-05-02T18:35:16.358Z,10.4
2023-05-02T18:36:37.376Z,10.5
2023-05-02T18:37:58.441Z,10.4
2023-05-02T18:39:18.515Z,10.3
2023-05-02T18:40:39.578Z,10.4
2023-05-02T18:42:00.712Z,10.4
2023-05-02T18:43:21.772Z,10.4
2023-05-02T18:44:42.832Z,10.5
2023-05-02T18:46:03.894Z,10.3
2023-05-02T18:47:24.907Z,10.6
2023-05-02T18:48:46.038Z,10.4
2023-05-02T18:50:07.102Z,10.4
2023-05-02T18:51:28.110Z,10.3
2023-05-02T18:52:49.225Z,10.4
2023-05-02T18:54:10.249Z,10.3
2023-05-02T18:55:31.359Z,10.4
2023-05-02T18:56:51.399Z,10.3
2023-05-02T18:58:12.562Z,10.3
2023-05-02T18:59:33.658Z,10.3
2023-05-02T19:00:53.802Z,10.2
2023-05-02T19:02:14.907Z,10.2
2023-05-02T19:03:35.952Z,10.2
2023-05-02T19:04:57.080Z,10.3
2023-05-02T19:06:18.091Z,10.1
2023-05-02T19:07:39.259Z,10.3
2023-05-02T19:09:00.355Z,10.2
2023-05-02T19:10:21.415Z,10.2
2023-05-02T19:11:42.525Z,10.2
2023-05-02T19:13:03.632Z,10.1
2023-05-02T19:14:24.811Z,10.2
2023-05-02T19:15:45.910Z,10.1
2023-05-02T19:17:06.973Z,10.2
2023-05-02T19:18:28.207Z,10.2
2023-05-02T19:19:49.360Z,10.2
2023-05-02T19:21:10.418Z,10.3
2023-05-02T19:22:31.594Z,10.1
2023-05-02T19:23:52.638Z,10.3
2023-05-02T19:25:13.808Z,10.2
2023-05-02T19:26:34.933Z,10.2
2023-05-02T19:27:55.994Z,10.1
2023-05-02T19:29:17.151Z,10.1
2023-05-02T19:30:38.204Z,10.2
2023-05-02T19:31:59.356Z,10.2
2023-05-02T19:33:20.419Z,10.1
2023-05-02T19:34:41.527Z,10
2023-05-02T19:36:01.707Z,10
2023-05-02T19:37:22.809Z,9.9
2023-05-02T19:38:43.865Z,9.8
2023-05-02T19:40:05.022Z,9.8
2023-05-02T19:41:26.133Z,9.8
2023-05-02T19:42:47.257Z,9.8
2023-05-02T19:44:08.353Z,9.7
2023-05-02T19:45:29.414Z,9.7
2023-05-02T19:46:50.587Z,9.6
2023-05-02T19:48:11.629Z,9.6
2023-05-02T19:49:32.794Z,9.6
2023-05-02T19:50:53.905Z,9.4
2023-05-02T19:52:15.016Z,9.4
2023-05-02T19:53:35.163Z,9.1
2023-05-02T19:54:56.274Z,9.2
2023-05-02T19:56:17.385Z,9.1
2023-05-02T19:57:38.480Z,9.2
2023-05-02T19:58:59.542Z,9
2023-05-02T20:00:20.712Z,9
2023-05-02T20:01:41.764Z,8.9
2023-05-02T20:03:02.932Z,8.8
2023-05-02T20:04:23.976Z,8.7
2023-05-02T20:05:45.097Z,8.8
2023-05-02T20:07:06.247Z,8.6
2023-05-02T20:08:27.310Z,8.5
2023-05-02T20:09:48.411Z,8.5
2023-05-02T20:11:08.537Z,8.3
2023-05-02T20:12:29.656Z,8.3
2023-05-02T20:13:50.756Z,8.3
2023-05-02T20:15:11.878Z,8.2
2023-05-02T20:16:33.048Z,8.1
2023-05-02T20:17:54.084Z,8.2
2023-05-02T20:19:15.191Z,8.1
2023-05-02T20:20:36.321Z,8.2
2023-05-02T20:21:57.481Z,8.2
2023-05-02T20:23:18.587Z,8.2
2023-05-02T20:24:39.697Z,8.3
2023-05-02T20:26:00.742Z,8.2
2023-05-02T20:27:21.917Z,8.2
2023-05-02T20:28:42.048Z,8.3
2023-05-02T20:30:03.171Z,8.2
2023-05-02T20:31:24.212Z,8.3
2023-05-02T20:32:45.373Z,8.2
2023-05-02T20:34:06.480Z,8.3
2023-05-02T20:35:27.607Z,8.2
2023-05-02T20:36:48.705Z,8.3
2023-05-02T20:38:09.824Z,8.2
2023-05-02T20:39:30.857Z,8.2
2023-05-02T20:40:51.993Z,8.1
2023-05-02T20:42:13.083Z,8.3
2023-05-02T20:43:34.201Z,8.3
2023-05-02T20:44:55.000Z,8.3
2023-05-02T20:46:15.439Z,8.2
2023-05-02T20:47:36.536Z,8.4
2023-05-02T20:48:57.656Z,8.3
2023-05-02T20:50:18.755Z,8.4
2023-05-02T20:51:39.865Z,8.4
2023-05-02T20:53:00.973Z,8.5
2023-05-02T20:54:22.090Z,8.5
2023-05-02T20:55:43.200Z,8.5
2023-05-02T20:57:04.311Z,8.5
2023-05-02T20:58:25.424Z,8.4
2023-05-02T20:59:46.548Z,8.5
2023-05-02T21:01:07.640Z,8.6
2023-05-02T21:02:28.760Z,8.5
2023-05-02T21:03:48.876Z,8.4
2023-05-02T21:05:09.975Z,8.5
2023-05-02T21:06:31.094Z,8.4
2023-05-02T21:07:52.203Z,8.4
2023-05-02T21:09:13.314Z,8.3
2023-05-02T21:10:34.427Z,8.4
2023-05-02T21:11:55.000Z,8.3
2023-05-02T21:13:16.626Z,8.2
2023-05-02T21:14:37.739Z,8.3
2023-05-02T21:15:58.862Z,8.3
2023-05-02T21:17:19.962Z,8.1
2023-05-02T21:18:41.079Z,8.1
2023-05-02T21:20:02.183Z,8.2
2023-05-02T21:21:22.302Z,8.2
2023-05-02T21:22:43.421Z,7.9
2023-05-02T21:24:04.525Z,7.9
2023-05-02T21:25:25.619Z,7.9
2023-05-02T21:26:46.731Z,7.9
2023-05-02T21:28:07.866Z,7.8
2023-05-02T21:29:28.962Z,7.8
2023-05-02T21:30:50.075Z,7.7
2023-05-02T21:32:11.178Z,7.7
2023-05-02T21:33:32.292Z,7.8
2023-05-02T21:34:53.405Z,7.7
2023-05-02T21:36:14.501Z,7.7
2023-05-02T21:37:35.637Z,7.6
2023-05-02T21:38:55.740Z,7.5
2023-05-02T21:40:16.870Z,7.4
2023-05-02T21:41:37.954Z,7.5
2023-05-02T21:42:59.084Z,7.4
2023-05-02T21:44:20.186Z,7.3
2023-05-02T21:45:41.303Z,7.4
2023-05-02T21:47:02.402Z,7.4
2023-05-02T21:48:23.507Z,7.2
2023-05-02T21:49:44.626Z,7.3
2023-05-02T21:51:05.715Z,7.2
2023-05-02T21:52:26.827Z,7.3
2023-05-02T21:53:47.951Z,7.2
2023-05-02T21:55:09.042Z,7.1
2023-05-02T21:56:29.173Z,7.2
2023-05-02T21:57:50.297Z,7
2023-05-02T21:59:11.378Z,7.1
2023-05-02T22:00:32.499Z,7.2
2023-05-02T22:01:53.624Z,7.1
2023-05-02T22:03:14.705Z,7.1
2023-05-02T22:04:35.839Z,7.1
2023-05-02T22:05:56.934Z,7.1
2023-05-02T22:07:18.061Z,7
2023-05-02T22:08:39.162Z,6.9
2023-05-02T22:10:00.281Z,6.9
2023-05-02T22:11:21.378Z,7
2023-05-02T22:12:42.498Z,6.9
2023-05-02T22:14:02.607Z,7.1
2023-05-02T22:15:23.725Z,7.1
2023-05-02T22:16:44.798Z,7.2
2023-05-02T22:18:05.935Z,7.1
2023-05-02T22:19:27.009Z,7.2
2023-05-02T22:20:48.140Z,7.3
2023-05-02T22:22:09.240Z,7
2023-05-02T22:23:30.342Z,7
2023-05-02T22:24:51.477Z,7
2023-05-02T22:26:12.569Z,7
2023-05-02T22:27:33.698Z,7
2023-05-02T22:28:54.780Z,6.9
2023-05-02T22:30:15.898Z,7
2023-05-02T22:31:36.052Z,7
2023-05-02T22:32:57.136Z,6.9
2023-05-02T22:34:18.254Z,6.9
2023-05-02T22:35:39.339Z,6.9
2023-05-02T22:37:00.489Z,7
2023-05-02T22:38:21.595Z,7
2023-05-02T22:39:42.668Z,7
2023-05-02T22:41:03.778Z,7
2023-05-02T22:42:24.916Z,7.1
2023-05-02T22:43:46.002Z,7.1
2023-05-02T22:45:07.130Z,7.2
2023-05-02T22:46:28.236Z,7.1
2023-05-02T22:47:49.325Z,7.2
2023-05-02T22:49:10.575Z,7.1
2023-05-02T22:50:31.676Z,7.1
2023-05-02T22:51:52.799Z,7.1
2023-05-02T22:53:13.897Z,7.3
2023-05-02T22:54:34.993Z,7
2023-05-02T22:55:56.119Z,7.1
2023-05-02T22:57:17.221Z,7
2023-05-02T22:58:38.342Z,7.1
2023-05-02T22:59:59.446Z,7.1
2023-05-02T23:01:20.537Z,7.1
2023-05-02T23:02:41.669Z,7.1
2023-05-02T23:04:02.742Z,7.1
2023-05-02T23:05:23.878Z,7
2023-05-02T23:06:44.011Z,7
2023-05-02T23:08:05.094Z,7.1
2023-05-02T23:09:26.229Z,7
2023-05-02T23:10:47.320Z,7
2023-05-02T23:12:08.412Z,7
2023-05-02T23:27:29.411Z,6.6
2023-05-02T23:42:50.364Z,6.2
2023-05-02T23:58:11.000Z,5.8
